sensor_id;sensor_type;location;lat;lon;timestamp;pressure;altitude;pressure_sealevel;temperature;humidity
70684;BME280;58263;48.146;11.440;2023-04-25T00:00:17;95046.53;;;8.24;65.22
70684;BME280;58263;48.146;11.440;2023-04-25T00:02:42;95046.16;;;8.20;64.84
70684;BME280;58263;48.146;11.440;2023-04-25T00:05:08;95047.44;;;8.18;65.41
70684;BME280;58263;48.146;11.440;2023-04-25T00:07:34;95056.53;;;8.17;65.25
70684;BME280;58263;48.146;11.440;2023-04-25T00:10:00;95055.09;;;8.26;65.17
70684;BME280;58263;48.146;11.440;2023-04-25T00:12:25;95063.25;;;8.31;65.33
70684;BME280;58263;48.146;11.440;2023-04-25T00:14:53;95065.91;;;8.19;65.13
70684;BME280;58263;48.146;11.440;2023-04-25T00:17:18;95064.75;;;8.15;65.38
70684;BME280;58263;48.146;11.440;2023-04-25T00:19:44;95059.88;;;8.24;65.06
70684;BME280;58263;48.146;11.440;2023-04-25T00:22:11;95059.88;;;8.24;64.98
70684;BME280;58263;48.146;11.440;2023-04-25T00:24:37;95063.72;;;8.28;65.18
70684;BME280;58263;48.146;11.440;2023-04-25T00:27:02;95069.06;;;8.28;65.12
70684;BME280;58263;48.146;11.440;2023-04-25T00:29:28;95053.50;;;8.25;65.42
70684;BME280;58263;48.146;11.440;2023-04-25T00:31:53;95054.66;;;8.29;65.27
70684;BME280;58263;48.146;11.440;2023-04-25T00:34:18;95057.34;;;8.29;65.25
70684;BME280;58263;48.146;11.440;2023-04-25T00:36:44;95051.41;;;8.27;65.00
70684;BME280;58263;48.146;11.440;2023-04-25T00:39:09;95053.59;;;8.30;64.91
70684;BME280;58263;48.146;11.440;2023-04-25T00:41:35;95048.84;;;8.32;65.04
70684;BME280;58263;48.146;11.440;2023-04-25T00:44:01;95050.47;;;8.33;64.57
70684;BME280;58263;48.146;11.440;2023-04-25T00:46:27;95050.47;;;8.33;65.03
70684;BME280;58263;48.146;11.440;2023-04-25T00:48:52;95050.91;;;8.30;65.33
70684;BME280;58263;48.146;11.440;2023-04-25T00:51:20;95041.06;;;8.31;64.93
70684;BME280;58263;48.146;11.440;2023-04-25T00:53:46;95040.81;;;8.32;64.99
70684;BME280;58263;48.146;11.440;2023-04-25T00:56:13;95035.00;;;8.23;65.36
70684;BME280;58263;48.146;11.440;2023-04-25T00:58:40;95036.16;;;8.27;65.21
70684;BME280;58263;48.146;11.440;2023-04-25T01:01:06;95033.84;;;8.19;64.92
70684;BME280;58263;48.146;11.440;2023-04-25T01:03:33;95045.38;;;8.20;65.28
70684;BME280;58263;48.146;11.440;2023-04-25T01:06:01;95047.56;;;8.23;65.38
70684;BME280;58263;48.146;11.440;2023-04-25T01:08:27;95043.72;;;8.19;65.33
70684;BME280;58263;48.146;11.440;2023-04-25T01:10:53;95048.59;;;8.22;65.26
70684;BME280;58263;48.146;11.440;2023-04-25T01:13:18;95041.97;;;8.12;65.31
70684;BME280;58263;48.146;11.440;2023-04-25T01:15:44;95034.19;;;8.11;65.46
70684;BME280;58263;48.146;11.440;2023-04-25T01:18:09;95034.91;;;8.06;65.17
70684;BME280;58263;48.146;11.440;2023-04-25T01:20:35;95039.56;;;7.99;65.71
70684;BME280;58263;48.146;11.440;2023-04-25T01:23:02;95041.41;;;8.10;65.41
70684;BME280;58263;48.146;11.440;2023-04-25T01:25:28;95036.53;;;7.95;65.42
70684;BME280;58263;48.146;11.440;2023-04-25T01:27:54;95032.34;;;8.00;65.69
70684;BME280;58263;48.146;11.440;2023-04-25T01:30:20;95030.81;;;7.92;65.56
70684;BME280;58263;48.146;11.440;2023-04-25T01:32:46;95028.16;;;7.92;65.13
70684;BME280;58263;48.146;11.440;2023-04-25T01:35:12;95023.88;;;7.79;65.71
70684;BME280;58263;48.146;11.440;2023-04-25T01:37:42;95027.09;;;7.81;65.57
70684;BME280;58263;48.146;11.440;2023-04-25T01:40:09;95029.31;;;7.72;65.68
70684;BME280;58263;48.146;11.440;2023-04-25T01:42:39;95032.56;;;7.74;65.87
70684;BME280;58263;48.146;11.440;2023-04-25T01:45:05;95029.41;;;7.66;66.13
70684;BME280;58263;48.146;11.440;2023-04-25T01:47:31;95034.03;;;7.58;67.02
70684;BME280;58263;48.146;11.440;2023-04-25T01:49:56;95030.22;;;7.66;66.37
70684;BME280;58263;48.146;11.440;2023-04-25T01:52:22;95035.28;;;7.44;66.88
70684;BME280;58263;48.146;11.440;2023-04-25T01:54:47;95029.94;;;7.32;67.02
70684;BME280;58263;48.146;11.440;2023-04-25T01:57:14;95042.66;;;7.30;67.06
70684;BME280;58263;48.146;11.440;2023-04-25T01:59:40;95033.34;;;7.21;68.09
70684;BME280;58263;48.146;11.440;2023-04-25T02:02:06;95029.00;;;7.38;66.97
70684;BME280;58263;48.146;11.440;2023-04-25T02:04:32;95025.75;;;7.36;67.69
70684;BME280;58263;48.146;11.440;2023-04-25T02:06:57;95025.50;;;7.26;68.08
70684;BME280;58263;48.146;11.440;2023-04-25T02:09:22;95028.47;;;7.18;67.90
70684;BME280;58263;48.146;11.440;2023-04-25T02:11:48;95037.25;;;7.06;68.24
70684;BME280;58263;48.146;11.440;2023-04-25T02:14:14;95034.72;;;7.11;67.49
70684;BME280;58263;48.146;11.440;2023-04-25T02:16:39;95032.50;;;7.08;67.75
70684;BME280;58263;48.146;11.440;2023-04-25T02:19:05;95029.75;;;7.15;67.27
70684;BME280;58263;48.146;11.440;2023-04-25T02:21:31;95032.09;;;7.23;67.24
70684;BME280;58263;48.146;11.440;2023-04-25T02:23:57;95031.28;;;7.23;67.27
70684;BME280;58263;48.146;11.440;2023-04-25T02:26:22;95029.78;;;7.27;67.07
70684;BME280;58263;48.146;11.440;2023-04-25T02:28:49;95033.34;;;7.21;67.00
70684;BME280;58263;48.146;11.440;2023-04-25T02:31:14;95026.84;;;7.17;67.54
70684;BME280;58263;48.146;11.440;2023-04-25T02:33:40;95024.31;;;7.22;67.34
70684;BME280;58263;48.146;11.440;2023-04-25T02:36:05;95015.28;;;7.23;67.66
70684;BME280;58263;48.146;11.440;2023-04-25T02:38:31;95018.19;;;7.21;67.19
70684;BME280;58263;48.146;11.440;2023-04-25T02:40:56;95018.97;;;7.22;67.23
70684;BME280;58263;48.146;11.440;2023-04-25T02:43:21;95019.47;;;7.31;66.89
70684;BME280;58263;48.146;11.440;2023-04-25T02:45:47;95014.72;;;7.33;66.47
70684;BME280;58263;48.146;11.440;2023-04-25T02:48:12;95018.44;;;7.32;66.21
70684;BME280;58263;48.146;11.440;2023-04-25T02:50:37;95026.34;;;7.38;66.08
70684;BME280;58263;48.146;11.440;2023-04-25T02:53:03;95024.38;;;7.45;65.83
70684;BME280;58263;48.146;11.440;2023-04-25T02:55:28;95026.94;;;7.40;65.85
70684;BME280;58263;48.146;11.440;2023-04-25T02:57:53;95035.97;;;7.39;65.91
70684;BME280;58263;48.146;11.440;2023-04-25T03:00:21;95024.28;;;7.40;65.51
70684;BME280;58263;48.146;11.440;2023-04-25T03:02:47;95027.47;;;7.31;65.89
70684;BME280;58263;48.146;11.440;2023-04-25T03:05:12;95016.59;;;7.32;66.41
70684;BME280;58263;48.146;11.440;2023-04-25T03:07:37;95029.09;;;7.32;67.55
70684;BME280;58263;48.146;11.440;2023-04-25T03:10:05;95021.28;;;7.18;67.49
70684;BME280;58263;48.146;11.440;2023-04-25T03:12:31;95023.44;;;7.28;67.64
70684;BME280;58263;48.146;11.440;2023-04-25T03:14:56;95012.75;;;7.28;67.77
70684;BME280;58263;48.146;11.440;2023-04-25T03:17:22;94999.41;;;7.28;67.38
70684;BME280;58263;48.146;11.440;2023-04-25T03:19:47;95003.25;;;7.32;67.56
70684;BME280;58263;48.146;11.440;2023-04-25T03:22:13;94994.78;;;7.35;67.30
70684;BME280;58263;48.146;11.440;2023-04-25T03:24:38;94996.25;;;7.19;67.96
70684;BME280;58263;48.146;11.440;2023-04-25T03:27:03;94996.47;;;7.18;67.65
70684;BME280;58263;48.146;11.440;2023-04-25T03:29:28;95001.81;;;7.18;67.25
70684;BME280;58263;48.146;11.440;2023-04-25T03:31:54;95007.06;;;7.24;66.85
70684;BME280;58263;48.146;11.440;2023-04-25T03:34:19;95006.22;;;7.24;67.26
70684;BME280;58263;48.146;11.440;2023-04-25T03:36:46;95001.13;;;7.22;67.11
70684;BME280;58263;48.146;11.440;2023-04-25T03:39:12;94999.84;;;7.13;67.50
70684;BME280;58263;48.146;11.440;2023-04-25T03:41:37;95007.59;;;7.15;67.69
70684;BME280;58263;48.146;11.440;2023-04-25T03:44:02;95003.06;;;7.15;67.71
70684;BME280;58263;48.146;11.440;2023-04-25T03:46:27;94997.84;;;7.08;68.05
70684;BME280;58263;48.146;11.440;2023-04-25T03:48:53;95011.84;;;7.04;68.41
70684;BME280;58263;48.146;11.440;2023-04-25T03:51:18;95001.00;;;7.17;68.38
70684;BME280;58263;48.146;11.440;2023-04-25T03:53:43;95000.72;;;7.07;68.13
70684;BME280;58263;48.146;11.440;2023-04-25T03:56:09;94995.78;;;7.10;68.21
70684;BME280;58263;48.146;11.440;2023-04-25T03:58:34;94994.84;;;7.17;68.23
70684;BME280;58263;48.146;11.440;2023-04-25T04:01:00;95000.09;;;7.23;68.09
70684;BME280;58263;48.146;11.440;2023-04-25T04:03:25;95005.88;;;7.20;68.29
70684;BME280;58263;48.146;11.440;2023-04-25T04:05:51;95000.19;;;7.17;68.34
70684;BME280;58263;48.146;11.440;2023-04-25T04:08:16;94996.56;;;7.11;68.18
70684;BME280;58263;48.146;11.440;2023-04-25T04:10:41;95004.09;;;7.14;68.44
70684;BME280;58263;48.146;11.440;2023-04-25T04:13:07;94999.94;;;7.06;67.75
70684;BME280;58263;48.146;11.440;2023-04-25T04:15:32;95002.00;;;7.04;67.96
70684;BME280;58263;48.146;11.440;2023-04-25T04:17:58;94998.88;;;7.07;67.90
70684;BME280;58263;48.146;11.440;2023-04-25T04:20:27;94992.63;;;7.14;67.79
70684;BME280;58263;48.146;11.440;2023-04-25T04:22:52;94997.50;;;7.17;68.08
70684;BME280;58263;48.146;11.440;2023-04-25T04:25:18;95003.16;;;7.08;68.74
70684;BME280;58263;48.146;11.440;2023-04-25T04:27:43;94998.13;;;7.19;68.48
70684;BME280;58263;48.146;11.440;2023-04-25T04:30:10;94998.66;;;7.09;68.75
70684;BME280;58263;48.146;11.440;2023-04-25T04:32:35;95005.41;;;7.23;68.63
70684;BME280;58263;48.146;11.440;2023-04-25T04:35:02;95015.00;;;7.13;69.01
70684;BME280;58263;48.146;11.440;2023-04-25T04:37:29;95014.22;;;7.24;69.13
70684;BME280;58263;48.146;11.440;2023-04-25T04:39:55;95016.47;;;7.27;68.67
70684;BME280;58263;48.146;11.440;2023-04-25T04:42:20;95014.91;;;7.19;68.87
70684;BME280;58263;48.146;11.440;2023-04-25T04:44:46;95020.94;;;7.15;68.69
70684;BME280;58263;48.146;11.440;2023-04-25T04:47:11;95016.88;;;7.24;68.95
70684;BME280;58263;48.146;11.440;2023-04-25T04:49:39;95005.69;;;7.34;68.59
70684;BME280;58263;48.146;11.440;2023-04-25T04:52:04;95008.09;;;7.23;68.90
70684;BME280;58263;48.146;11.440;2023-04-25T04:54:30;95011.13;;;7.27;69.25
70684;BME280;58263;48.146;11.440;2023-04-25T04:56:55;94998.81;;;7.26;68.60
70684;BME280;58263;48.146;11.440;2023-04-25T04:59:21;94992.47;;;7.39;68.85
70684;BME280;58263;48.146;11.440;2023-04-25T05:01:46;95003.91;;;7.27;68.50
70684;BME280;58263;48.146;11.440;2023-04-25T05:04:12;95011.34;;;7.25;69.22
70684;BME280;58263;48.146;11.440;2023-04-25T05:06:37;95009.28;;;7.39;69.06
70684;BME280;58263;48.146;11.440;2023-04-25T05:09:02;95010.09;;;7.28;69.76
70684;BME280;58263;48.146;11.440;2023-04-25T05:11:28;95005.00;;;7.38;69.30
70684;BME280;58263;48.146;11.440;2023-04-25T05:13:54;95010.66;;;7.30;69.47
70684;BME280;58263;48.146;11.440;2023-04-25T05:16:19;95006.34;;;7.17;70.00
70684;BME280;58263;48.146;11.440;2023-04-25T05:18:46;95010.97;;;7.22;69.74
70684;BME280;58263;48.146;11.440;2023-04-25T05:21:11;95017.63;;;7.31;69.83
70684;BME280;58263;48.146;11.440;2023-04-25T05:23:37;95012.75;;;7.28;70.12
70684;BME280;58263;48.146;11.440;2023-04-25T05:26:02;95009.88;;;7.41;70.52
70684;BME280;58263;48.146;11.440;2023-04-25T05:28:27;95002.78;;;7.35;69.70
70684;BME280;58263;48.146;11.440;2023-04-25T05:30:53;95009.75;;;7.36;70.83
70684;BME280;58263;48.146;11.440;2023-04-25T05:33:18;95004.66;;;7.47;70.41
70684;BME280;58263;48.146;11.440;2023-04-25T05:35:44;95003.34;;;7.37;70.39
70684;BME280;58263;48.146;11.440;2023-04-25T05:38:09;95006.03;;;7.37;70.39
70684;BME280;58263;48.146;11.440;2023-04-25T05:40:35;95009.16;;;7.34;70.07
70684;BME280;58263;48.146;11.440;2023-04-25T05:43:00;95004.44;;;7.36;70.11
70684;BME280;58263;48.146;11.440;2023-04-25T05:45:26;95014.16;;;7.42;68.83
70684;BME280;58263;48.146;11.440;2023-04-25T05:47:51;95021.19;;;7.25;69.07
70684;BME280;58263;48.146;11.440;2023-04-25T05:50:16;95031.19;;;6.99;71.01
70684;BME280;58263;48.146;11.440;2023-04-25T05:52:42;95033.28;;;6.97;72.84
70684;BME280;58263;48.146;11.440;2023-04-25T05:55:07;95040.19;;;6.86;74.02
70684;BME280;58263;48.146;11.440;2023-04-25T05:57:33;95035.47;;;6.70;74.72
70684;BME280;58263;48.146;11.440;2023-04-25T05:59:58;95030.19;;;6.82;74.77
70684;BME280;58263;48.146;11.440;2023-04-25T06:02:24;95039.38;;;6.86;75.19
70684;BME280;58263;48.146;11.440;2023-04-25T06:04:49;95026.63;;;6.88;76.22
70684;BME280;58263;48.146;11.440;2023-04-25T06:07:15;95019.88;;;6.85;75.71
70684;BME280;58263;48.146;11.440;2023-04-25T06:09:41;95014.00;;;6.95;74.57
70684;BME280;58263;48.146;11.440;2023-04-25T06:12:06;95017.22;;;6.85;76.14
70684;BME280;58263;48.146;11.440;2023-04-25T06:14:33;95020.09;;;7.02;76.07
70684;BME280;58263;48.146;11.440;2023-04-25T06:16:59;95020.53;;;6.99;76.19
70684;BME280;58263;48.146;11.440;2023-04-25T06:19:24;95021.75;;;7.15;76.86
70684;BME280;58263;48.146;11.440;2023-04-25T06:21:50;95020.16;;;7.26;76.01
70684;BME280;58263;48.146;11.440;2023-04-25T06:24:15;95017.72;;;7.24;76.41
70684;BME280;58263;48.146;11.440;2023-04-25T06:26:40;95022.78;;;7.14;76.68
70684;BME280;58263;48.146;11.440;2023-04-25T06:29:06;95015.94;;;7.18;76.75
70684;BME280;58263;48.146;11.440;2023-04-25T06:31:31;95016.88;;;7.24;76.20
70684;BME280;58263;48.146;11.440;2023-04-25T06:33:59;95004.84;;;7.33;76.02
70684;BME280;58263;48.146;11.440;2023-04-25T06:36:24;95012.56;;;7.53;76.09
70684;BME280;58263;48.146;11.440;2023-04-25T06:38:51;95012.59;;;7.89;76.91
70684;BME280;58263;48.146;11.440;2023-04-25T06:41:17;95010.59;;;8.32;75.83
70684;BME280;58263;48.146;11.440;2023-04-25T06:43:43;95000.72;;;8.56;75.03
70684;BME280;58263;48.146;11.440;2023-04-25T06:46:09;95001.63;;;8.73;73.93
70684;BME280;58263;48.146;11.440;2023-04-25T06:48:34;95003.09;;;8.81;74.17
70684;BME280;58263;48.146;11.440;2023-04-25T06:50:59;95003.28;;;8.51;73.39
70684;BME280;58263;48.146;11.440;2023-04-25T06:53:25;95007.56;;;8.75;72.17
70684;BME280;58263;48.146;11.440;2023-04-25T06:55:50;94999.53;;;8.75;73.78
70684;BME280;58263;48.146;11.440;2023-04-25T06:58:15;95004.03;;;8.75;71.17
70684;BME280;58263;48.146;11.440;2023-04-25T07:00:41;95011.00;;;8.88;71.91
70684;BME280;58263;48.146;11.440;2023-04-25T07:03:07;95016.25;;;8.83;71.60
70684;BME280;58263;48.146;11.440;2023-04-25T07:05:32;95000.84;;;8.90;71.03
70684;BME280;58263;48.146;11.440;2023-04-25T07:07:57;95003.16;;;8.98;69.82
70684;BME280;58263;48.146;11.440;2023-04-25T07:10:22;94999.78;;;9.03;69.97
70684;BME280;58263;48.146;11.440;2023-04-25T07:12:48;94995.44;;;9.13;70.04
70684;BME280;58263;48.146;11.440;2023-04-25T07:15:13;94999.84;;;9.37;70.39
70684;BME280;58263;48.146;11.440;2023-04-25T07:17:38;94997.91;;;9.49;68.99
70684;BME280;58263;48.146;11.440;2023-04-25T07:20:04;94995.63;;;9.58;69.03
70684;BME280;58263;48.146;11.440;2023-04-25T07:22:31;94989.97;;;9.71;68.43
70684;BME280;58263;48.146;11.440;2023-04-25T07:24:57;94997.59;;;9.79;67.74
70684;BME280;58263;48.146;11.440;2023-04-25T07:27:22;94995.16;;;9.78;66.75
70684;BME280;58263;48.146;11.440;2023-04-25T07:29:47;94986.66;;;9.64;66.78
70684;BME280;58263;48.146;11.440;2023-04-25T07:32:13;94987.38;;;9.76;67.40
70684;BME280;58263;48.146;11.440;2023-04-25T07:34:39;94989.31;;;9.64;66.51
70684;BME280;58263;48.146;11.440;2023-04-25T07:37:05;94988.19;;;9.60;66.73
70684;BME280;58263;48.146;11.440;2023-04-25T07:39:30;94985.75;;;9.75;67.33
70684;BME280;58263;48.146;11.440;2023-04-25T07:41:56;94984.88;;;10.26;67.48
70684;BME280;58263;48.146;11.440;2023-04-25T07:44:23;94982.00;;;10.49;66.78
70684;BME280;58263;48.146;11.440;2023-04-25T07:46:49;94984.72;;;10.77;66.61
70684;BME280;58263;48.146;11.440;2023-04-25T07:49:14;94993.28;;;10.96;64.52
70684;BME280;58263;48.146;11.440;2023-04-25T07:51:40;94978.91;;;11.07;63.68
70684;BME280;58263;48.146;11.440;2023-04-25T07:54:06;94976.81;;;11.42;62.01
70684;BME280;58263;48.146;11.440;2023-04-25T07:56:32;94980.53;;;11.68;62.08
70684;BME280;58263;48.146;11.440;2023-04-25T07:58:57;94978.38;;;11.65;61.50
70684;BME280;58263;48.146;11.440;2023-04-25T08:01:22;94977.81;;;11.95;60.15
70684;BME280;58263;48.146;11.440;2023-04-25T08:03:48;94969.13;;;12.21;59.12
70684;BME280;58263;48.146;11.440;2023-04-25T08:06:13;94971.47;;;12.65;58.44
70684;BME280;58263;48.146;11.440;2023-04-25T08:08:38;94965.03;;;12.66;57.82
70684;BME280;58263;48.146;11.440;2023-04-25T08:11:04;94963.88;;;12.51;57.63
70684;BME280;58263;48.146;11.440;2023-04-25T08:13:29;94964.47;;;12.59;57.99
70684;BME280;58263;48.146;11.440;2023-04-25T08:15:55;94971.72;;;12.58;57.11
70684;BME280;58263;48.146;11.440;2023-04-25T08:18:20;94975.75;;;12.50;55.85
70684;BME280;58263;48.146;11.440;2023-04-25T08:20:45;94975.94;;;12.39;56.60
70684;BME280;58263;48.146;11.440;2023-04-25T08:23:10;94981.13;;;12.50;56.29
70684;BME280;58263;48.146;11.440;2023-04-25T08:25:36;94984.38;;;12.58;56.04
70684;BME280;58263;48.146;11.440;2023-04-25T08:28:01;94978.13;;;12.47;55.31
70684;BME280;58263;48.146;11.440;2023-04-25T08:30:28;94979.09;;;12.83;56.32
70684;BME280;58263;48.146;11.440;2023-04-25T08:32:54;94980.09;;;13.41;56.09
70684;BME280;58263;48.146;11.440;2023-04-25T08:35:19;94982.00;;;13.66;53.29
70684;BME280;58263;48.146;11.440;2023-04-25T08:37:45;94979.84;;;13.99;51.00
70684;BME280;58263;48.146;11.440;2023-04-25T08:40:12;94976.59;;;14.07;49.08
70684;BME280;58263;48.146;11.440;2023-04-25T08:42:40;94977.13;;;14.14;48.70
70684;BME280;58263;48.146;11.440;2023-04-25T08:45:08;94980.09;;;14.02;47.94
70684;BME280;58263;48.146;11.440;2023-04-25T08:47:34;94979.50;;;14.31;47.09
70684;BME280;58263;48.146;11.440;2023-04-25T08:50:03;94983.75;;;14.74;46.56
70684;BME280;58263;48.146;11.440;2023-04-25T08:52:35;94987.66;;;15.12;46.76
70684;BME280;58263;48.146;11.440;2023-04-25T08:55:01;94987.41;;;15.03;44.34
70684;BME280;58263;48.146;11.440;2023-04-25T08:57:28;94985.59;;;15.44;43.53
70684;BME280;58263;48.146;11.440;2023-04-25T08:59:57;94983.69;;;15.39;43.42
70684;BME280;58263;48.146;11.440;2023-04-25T09:02:24;94986.38;;;15.89;42.90
70684;BME280;58263;48.146;11.440;2023-04-25T09:04:50;94986.03;;;16.54;41.90
70684;BME280;58263;48.146;11.440;2023-04-25T09:07:15;94977.88;;;16.60;39.34
70684;BME280;58263;48.146;11.440;2023-04-25T09:09:43;94977.66;;;17.23;39.22
70684;BME280;58263;48.146;11.440;2023-04-25T09:12:09;94975.75;;;16.27;39.78
70684;BME280;58263;48.146;11.440;2023-04-25T09:14:35;94976.91;;;16.99;38.34
70684;BME280;58263;48.146;11.440;2023-04-25T09:17:02;94986.44;;;17.15;38.31
70684;BME280;58263;48.146;11.440;2023-04-25T09:19:35;94981.97;;;17.24;39.09
70684;BME280;58263;48.146;11.440;2023-04-25T09:22:02;94981.88;;;16.86;38.57
70684;BME280;58263;48.146;11.440;2023-04-25T09:27:03;94992.91;;;16.17;40.31
70684;BME280;58263;48.146;11.440;2023-04-25T09:29:31;94994.28;;;15.80;39.86
70684;BME280;58263;48.146;11.440;2023-04-25T09:32:23;94996.50;;;16.08;40.26
70684;BME280;58263;48.146;11.440;2023-04-25T09:34:51;94995.63;;;16.12;40.29
70684;BME280;58263;48.146;11.440;2023-04-25T09:37:22;94986.72;;;16.65;39.93
70684;BME280;58263;48.146;11.440;2023-04-25T09:39:50;94992.16;;;16.65;39.00
70684;BME280;58263;48.146;11.440;2023-04-25T09:42:16;94988.94;;;16.34;38.90
70684;BME280;58263;48.146;11.440;2023-04-25T09:44:44;94998.31;;;16.17;39.81
70684;BME280;58263;48.146;11.440;2023-04-25T09:47:11;95007.03;;;16.09;40.48
70684;BME280;58263;48.146;11.440;2023-04-25T09:49:42;94997.31;;;15.68;41.59
70684;BME280;58263;48.146;11.440;2023-04-25T09:52:08;95004.31;;;15.30;44.04
70684;BME280;58263;48.146;11.440;2023-04-25T09:54:34;95002.72;;;15.18;42.46
70684;BME280;58263;48.146;11.440;2023-04-25T09:57:10;94999.31;;;15.47;43.31
70684;BME280;58263;48.146;11.440;2023-04-25T09:59:38;95004.97;;;15.06;42.58
70684;BME280;58263;48.146;11.440;2023-04-25T10:02:06;95002.09;;;15.87;42.81
70684;BME280;58263;48.146;11.440;2023-04-25T10:04:34;95000.31;;;16.89;41.86
70684;BME280;58263;48.146;11.440;2023-04-25T10:07:01;94988.28;;;17.39;38.81
70684;BME280;58263;48.146;11.440;2023-04-25T10:09:28;94983.00;;;17.67;38.57
70684;BME280;58263;48.146;11.440;2023-04-25T10:11:58;94984.09;;;17.09;38.27
70684;BME280;58263;48.146;11.440;2023-04-25T10:14:24;94983.03;;;16.56;37.74
70684;BME280;58263;48.146;11.440;2023-04-25T10:16:50;94991.88;;;16.08;39.14
70684;BME280;58263;48.146;11.440;2023-04-25T10:19:19;94996.81;;;16.01;40.45
70684;BME280;58263;48.146;11.440;2023-04-25T10:22:15;94989.81;;;15.05;41.07
70684;BME280;58263;48.146;11.440;2023-04-25T10:24:42;94999.66;;;14.80;43.17
70684;BME280;58263;48.146;11.440;2023-04-25T10:27:09;95012.72;;;14.37;41.65
70684;BME280;58263;48.146;11.440;2023-04-25T10:29:35;95023.00;;;13.94;40.80
70684;BME280;58263;48.146;11.440;2023-04-25T10:32:00;95020.81;;;14.01;41.75
70684;BME280;58263;48.146;11.440;2023-04-25T10:34:43;95020.25;;;13.58;42.33
70684;BME280;58263;48.146;11.440;2023-04-25T10:37:12;95034.50;;;13.38;43.39
70684;BME280;58263;48.146;11.440;2023-04-25T10:39:40;95032.63;;;13.43;44.57
70684;BME280;58263;48.146;11.440;2023-04-25T10:42:06;95035.09;;;12.87;46.62
70684;BME280;58263;48.146;11.440;2023-04-25T10:44:33;95045.81;;;12.76;51.33
70684;BME280;58263;48.146;11.440;2023-04-25T10:47:00;95047.66;;;12.71;53.70
70684;BME280;58263;48.146;11.440;2023-04-25T10:49:37;95055.34;;;12.51;54.32
70684;BME280;58263;48.146;11.440;2023-04-25T10:52:18;95057.53;;;12.55;55.46
70684;BME280;58263;48.146;11.440;2023-04-25T10:54:54;95071.88;;;12.28;53.41
70684;BME280;58263;48.146;11.440;2023-04-25T10:57:31;95060.38;;;12.80;53.62
70684;BME280;58263;48.146;11.440;2023-04-25T11:02:27;95075.81;;;13.84;49.55
70684;BME280;58263;48.146;11.440;2023-04-25T11:04:53;95064.44;;;14.80;47.84
70684;BME280;58263;48.146;11.440;2023-04-25T11:07:38;95060.91;;;14.95;47.37
70684;BME280;58263;48.146;11.440;2023-04-25T11:10:05;95068.47;;;15.64;45.01
70684;BME280;58263;48.146;11.440;2023-04-25T11:12:31;95070.63;;;14.91;43.02
70684;BME280;58263;48.146;11.440;2023-04-25T11:15:06;95074.72;;;14.83;42.09
70684;BME280;58263;48.146;11.440;2023-04-25T11:17:32;95076.38;;;14.64;42.89
70684;BME280;58263;48.146;11.440;2023-04-25T11:19:58;95082.31;;;14.19;42.83
70684;BME280;58263;48.146;11.440;2023-04-25T11:22:24;95080.69;;;13.98;44.29
70684;BME280;58263;48.146;11.440;2023-04-25T11:24:49;95084.97;;;13.83;45.37
70684;BME280;58263;48.146;11.440;2023-04-25T11:27:15;95095.69;;;13.58;46.78
70684;BME280;58263;48.146;11.440;2023-04-25T11:29:41;95093.44;;;13.34;46.98
70684;BME280;58263;48.146;11.440;2023-04-25T11:32:06;95099.28;;;13.10;47.38
70684;BME280;58263;48.146;11.440;2023-04-25T11:34:33;95100.38;;;12.66;48.86
70684;BME280;58263;48.146;11.440;2023-04-25T11:37:00;95104.63;;;12.20;51.41
70684;BME280;58263;48.146;11.440;2023-04-25T11:39:27;95110.16;;;11.80;54.98
70684;BME280;58263;48.146;11.440;2023-04-25T11:41:53;95131.81;;;11.46;56.60
70684;BME280;58263;48.146;11.440;2023-04-25T11:44:19;95129.09;;;11.41;57.10
70684;BME280;58263;48.146;11.440;2023-04-25T11:46:45;95123.69;;;10.97;57.24
70684;BME280;58263;48.146;11.440;2023-04-25T11:49:11;95121.94;;;10.86;57.47
70684;BME280;58263;48.146;11.440;2023-04-25T11:51:45;95129.66;;;10.99;57.42
70684;BME280;58263;48.146;11.440;2023-04-25T11:54:11;95126.72;;;10.83;57.24
70684;BME280;58263;48.146;11.440;2023-04-25T11:56:40;95126.53;;;11.07;57.65
70684;BME280;58263;48.146;11.440;2023-04-25T11:59:06;95134.41;;;11.14;57.15
70684;BME280;58263;48.146;11.440;2023-04-25T12:01:34;95136.69;;;11.05;57.56
70684;BME280;58263;48.146;11.440;2023-04-25T12:04:15;95142.47;;;10.97;57.71
70684;BME280;58263;48.146;11.440;2023-04-25T12:06:42;95140.94;;;11.01;57.42
70684;BME280;58263;48.146;11.440;2023-04-25T12:09:09;95147.31;;;10.95;57.79
70684;BME280;58263;48.146;11.440;2023-04-25T12:14:07;95151.22;;;10.70;58.77
70684;BME280;58263;48.146;11.440;2023-04-25T12:16:46;95141.00;;;10.67;58.93
70684;BME280;58263;48.146;11.440;2023-04-25T12:19:19;95143.84;;;10.77;59.05
70684;BME280;58263;48.146;11.440;2023-04-25T12:21:45;95145.66;;;10.94;58.77
70684;BME280;58263;48.146;11.440;2023-04-25T12:24:20;95144.66;;;11.00;58.84
70684;BME280;58263;48.146;11.440;2023-04-25T12:26:53;95144.47;;;11.07;58.79
70684;BME280;58263;48.146;11.440;2023-04-25T12:29:21;95140.78;;;10.52;58.90
70684;BME280;58263;48.146;11.440;2023-04-25T12:31:47;95147.47;;;10.88;59.77
70684;BME280;58263;48.146;11.440;2023-04-25T12:34:12;95146.84;;;10.64;60.53
70684;BME280;58263;48.146;11.440;2023-04-25T12:36:38;95144.25;;;10.69;61.01
70684;BME280;58263;48.146;11.440;2023-04-25T12:39:04;95152.22;;;10.47;60.95
70684;BME280;58263;48.146;11.440;2023-04-25T12:41:30;95153.53;;;10.44;60.53
70684;BME280;58263;48.146;11.440;2023-04-25T12:43:55;95161.50;;;10.39;61.81
70684;BME280;58263;48.146;11.440;2023-04-25T12:46:21;95152.50;;;10.17;61.84
70684;BME280;58263;48.146;11.440;2023-04-25T12:48:47;95165.00;;;10.11;62.84
70684;BME280;58263;48.146;11.440;2023-04-25T12:51:13;95165.91;;;10.17;62.99
70684;BME280;58263;48.146;11.440;2023-04-25T12:53:38;95162.78;;;10.37;63.78
70684;BME280;58263;48.146;11.440;2023-04-25T12:56:06;95166.59;;;10.58;63.58
70684;BME280;58263;48.146;11.440;2023-04-25T12:58:32;95162.09;;;10.80;63.99